Time;durP1;ratioP1;P1;durP2;ratioP2;P2;SDS_P1;SDS_P2;PMS_P1;PMS_P2;Temp;Humidity;BMP_temperature;BMP_pressure;BME280_temperature;BME280_humidity;BME280_pressure;Samples;Min_cycle;Max_cycle;Signal;HPM_P1;HPM_P2
2022/09/25 00:01:47;;;;;;;10.68;4.30;;;7.80;99.90;;;;;;4995760;28;20054;-74
2022/09/25 00:04:13;;;;;;;11.98;4.82;;;7.80;99.90;;;;;;4995230;28;20491;-72
2022/09/25 00:06:39;;;;;;;10.15;3.97;;;7.80;99.90;;;;;;4995170;28;20529;-74
2022/09/25 00:09:04;;;;;;;11.77;4.78;;;8.10;99.90;;;;;;4995132;28;20089;-75
2022/09/25 00:11:32;;;;;;;7.13;4.28;;;8.10;99.90;;;;;;4978996;28;20145;-73
2022/09/25 00:13:59;;;;;;;9.13;4.38;;;7.80;99.90;;;;;;4978163;28;20065;-72
2022/09/25 00:16:29;;;;;;;8.20;3.92;;;7.90;99.90;;;;;;4995299;28;20053;-72
2022/09/25 00:21:41;;;;;;;8.20;4.78;;;7.70;99.90;;;;;;4985334;28;20046;-73
2022/09/25 00:24:08;;;;;;;9.82;4.78;;;7.60;99.90;;;;;;4995244;28;20120;-74
2022/09/25 00:26:37;;;;;;;10.35;4.65;;;7.60;99.90;;;;;;4995603;28;20067;-73
2022/09/25 00:29:04;;;;;;;24.67;5.18;;;7.50;99.90;;;;;;4994673;28;20043;-74
2022/09/25 00:31:31;;;;;;;14.98;4.97;;;7.50;99.90;;;;;;4995230;28;20053;-74
2022/09/25 00:33:59;;;;;;;8.55;4.13;;;7.50;99.90;;;;;;4995045;28;20498;-73
2022/09/25 00:36:25;;;;;;;8.63;4.05;;;7.50;99.90;;;;;;4989997;28;20096;-73
2022/09/25 00:38:51;;;;;;;10.88;4.03;;;7.50;99.90;;;;;;4978207;28;20490;-74
2022/09/25 00:41:19;;;;;;;13.38;4.32;;;7.50;99.90;;;;;;4995326;28;20046;-73
2022/09/25 00:43:49;;;;;;;12.07;4.72;;;7.40;99.90;;;;;;4994954;28;20355;-72
2022/09/25 00:46:38;;;;;;;9.75;4.63;;;7.40;99.90;;;;;;4981390;28;20054;-72
2022/09/25 00:49:10;;;;;;;13.90;5.15;;;7.40;99.90;;;;;;4998867;28;20053;-73
2022/09/25 00:51:46;;;;;;;8.00;3.70;;;7.80;99.90;;;;;;4998742;28;20034;-73
2022/09/25 00:54:18;;;;;;;8.00;4.07;;;7.40;99.90;;;;;;4998655;28;20100;-72
2022/09/25 00:56:46;;;;;;;9.00;4.30;;;7.40;99.90;;;;;;4998772;28;20046;-72
2022/09/25 00:59:20;;;;;;;16.48;4.57;;;7.60;99.90;;;;;;4981778;28;20121;-74
2022/09/25 01:01:46;;;;;;;9.30;4.50;;;7.30;99.90;;;;;;4998726;28;20483;-73
2022/09/25 01:04:13;;;;;;;11.82;4.65;;;7.30;99.90;;;;;;4981348;28;20062;-74
2022/09/25 01:06:39;;;;;;;7.28;3.70;;;7.30;99.90;;;;;;4997909;28;20062;-72
2022/09/25 01:09:05;;;;;;;8.77;4.05;;;7.30;99.90;;;;;;4998096;28;20043;-73
2022/09/25 01:11:31;;;;;;;6.88;3.88;;;7.20;99.90;;;;;;4998347;28;20049;-72
2022/09/25 01:13:59;;;;;;;12.20;5.25;;;7.20;99.90;;;;;;4998151;28;20046;-71
2022/09/25 01:16:48;;;;;;;8.07;3.95;;;7.30;99.90;;;;;;4997961;28;20066;-72
2022/09/25 01:19:48;;;;;;;7.20;4.50;;;7.20;99.90;;;;;;4997398;28;20486;-73
2022/09/25 01:22:50;;;;;;;11.20;4.53;;;7.20;99.90;;;;;;4998734;28;20092;-73
2022/09/25 01:25:42;;;;;;;11.35;4.13;;;7.30;99.90;;;;;;4998173;28;20046;-72
2022/09/25 01:28:07;;;;;;;10.07;4.57;;;7.30;99.90;;;;;;4998086;28;20125;-76
2022/09/25 01:30:40;;;;;;;6.05;3.80;;;7.20;99.90;;;;;;4997398;28;20492;-72
2022/09/25 01:33:17;;;;;;;10.85;4.80;;;7.20;99.90;;;;;;4997286;28;20073;-72
2022/09/25 01:36:08;;;;;;;10.98;4.10;;;7.20;99.90;;;;;;4995247;28;20054;-75
2022/09/25 01:38:50;;;;;;;7.85;4.10;;;7.20;99.90;;;;;;4997901;28;20056;-73
2022/09/25 01:41:46;;;;;;;9.18;3.90;;;7.20;99.90;;;;;;4998367;28;20042;-74
2022/09/25 01:44:16;;;;;;;9.25;4.70;;;7.20;99.90;;;;;;4992808;28;20062;-72
2022/09/25 01:46:46;;;;;;;12.23;4.30;;;7.20;99.90;;;;;;4997842;28;20042;-72
2022/09/25 01:49:17;;;;;;;11.40;4.03;;;7.10;99.90;;;;;;4980479;28;20451;-74
2022/09/25 01:51:48;;;;;;;9.25;4.22;;;7.30;99.90;;;;;;4991570;28;20042;-73
2022/09/25 01:54:23;;;;;;;8.48;3.95;;;7.10;99.90;;;;;;4997706;28;20081;-72
2022/09/25 01:57:08;;;;;;;9.10;4.10;;;7.00;99.90;;;;;;4996122;28;20038;-72
2022/09/25 01:59:43;;;;;;;9.70;4.57;;;7.00;99.90;;;;;;4997596;28;20046;-72
2022/09/25 02:02:13;;;;;;;6.93;3.88;;;7.00;99.90;;;;;;4997848;28;20081;-73
2022/09/25 02:04:59;;;;;;;7.82;4.28;;;7.00;99.90;;;;;;4997421;28;20054;-72
2022/09/25 02:07:35;;;;;;;9.85;4.57;;;7.10;99.90;;;;;;4997390;28;20081;-72
2022/09/25 02:10:18;;;;;;;8.45;3.55;;;7.00;99.90;;;;;;4997507;28;20057;-73
2022/09/25 02:12:48;;;;;;;8.15;4.32;;;6.90;99.90;;;;;;4997306;28;20038;-73
2022/09/25 02:15:18;;;;;;;5.72;3.50;;;6.90;99.90;;;;;;4997397;28;20050;-72
2022/09/25 02:20:41;;;;;;;7.88;3.80;;;6.80;99.90;;;;;;4997149;28;20050;-73
2022/09/25 02:23:26;;;;;;;9.63;4.18;;;6.80;99.90;;;;;;4996384;28;20443;-73
2022/09/25 02:26:03;;;;;;;8.05;3.90;;;6.80;99.90;;;;;;4980019;28;20054;-73
2022/09/25 02:28:29;;;;;;;5.85;3.63;;;6.80;99.90;;;;;;4996787;28;20050;-72
2022/09/25 02:30:58;;;;;;;8.43;3.50;;;6.70;99.90;;;;;;4997251;28;20046;-74
2022/09/25 02:33:25;;;;;;;8.38;3.55;;;6.70;99.90;;;;;;4997088;28;20058;-73
2022/09/25 02:35:51;;;;;;;6.60;3.22;;;6.70;99.90;;;;;;4997245;28;20065;-72
2022/09/25 02:38:18;;;;;;;7.32;4.00;;;6.70;99.90;;;;;;4997121;28;20061;-73
2022/09/25 02:40:52;;;;;;;7.15;3.90;;;6.70;99.90;;;;;;4996646;28;20509;-71
2022/09/25 02:43:57;;;;;;;8.63;3.38;;;6.70;99.90;;;;;;4977746;28;20450;-71
2022/09/25 02:46:25;;;;;;;10.68;4.22;;;6.70;99.90;;;;;;4938161;28;20467;-72
2022/09/25 02:49:04;;;;;;;9.43;4.38;;;6.70;99.90;;;;;;4977092;28;20082;-72
2022/09/25 02:51:38;;;;;;;9.95;3.90;;;6.70;99.90;;;;;;4977197;28;20047;-72
2022/09/25 02:54:20;;;;;;;8.55;3.95;;;6.70;99.90;;;;;;4960239;28;20042;-73
2022/09/25 02:57:14;;;;;;;9.15;4.28;;;6.70;99.90;;;;;;4954255;28;20069;-73
2022/09/25 02:59:55;;;;;;;11.15;4.13;;;6.70;99.90;;;;;;4995938;28;20046;-73
2022/09/25 03:02:22;;;;;;;10.73;4.22;;;6.70;99.90;;;;;;4996759;28;20046;-73
2022/09/25 03:04:49;;;;;;;9.85;4.65;;;6.70;99.90;;;;;;4963116;28;20125;-72
2022/09/25 03:07:17;;;;;;;9.48;4.45;;;6.70;99.90;;;;;;4996280;28;20045;-72
2022/09/25 03:09:45;;;;;;;7.93;4.65;;;7.00;99.90;;;;;;4996377;28;20444;-72
2022/09/25 03:12:11;;;;;;;9.98;4.20;;;6.60;99.90;;;;;;4996293;28;20045;-73
2022/09/25 03:14:37;;;;;;;10.35;4.22;;;6.70;99.90;;;;;;4979361;28;20116;-72
2022/09/25 03:17:05;;;;;;;9.43;4.68;;;6.60;99.90;;;;;;4996110;28;20046;-73
2022/09/25 03:19:32;;;;;;;9.90;4.32;;;6.60;99.90;;;;;;4996204;28;20106;-72
2022/09/25 03:21:58;;;;;;;8.52;4.45;;;6.60;99.90;;;;;;4996272;28;20062;-72
2022/09/25 03:24:24;;;;;;;11.63;4.47;;;6.60;99.90;;;;;;4995971;28;20050;-72
2022/09/25 03:26:50;;;;;;;11.45;4.60;;;6.50;99.90;;;;;;4979256;28;20077;-74
2022/09/25 03:29:16;;;;;;;9.00;4.18;;;6.50;99.90;;;;;;4979012;28;20049;-73
2022/09/25 03:31:44;;;;;;;13.82;4.45;;;6.70;99.90;;;;;;4978726;28;20419;-74
2022/09/25 03:34:11;;;;;;;8.43;4.47;;;6.50;99.90;;;;;;4996320;28;20053;-73
2022/09/25 03:36:37;;;;;;;16.77;4.90;;;6.50;99.90;;;;;;4995835;28;20046;-75
2022/09/25 03:39:04;;;;;;;10.98;4.85;;;6.70;99.90;;;;;;4996223;28;20042;-73
2022/09/25 03:41:33;;;;;;;10.27;4.38;;;6.60;99.90;;;;;;4979471;28;20086;-73
2022/09/25 03:44:00;;;;;;;10.65;4.75;;;6.50;99.90;;;;;;4995496;28;20151;-73
2022/09/25 03:46:34;;;;;;;8.57;3.72;;;6.50;99.90;;;;;;4995864;28;20034;-73
2022/09/25 03:49:00;;;;;;;11.50;4.50;;;6.50;99.90;;;;;;4995879;28;20108;-72
2022/09/25 03:51:28;;;;;;;9.48;4.50;;;6.50;99.90;;;;;;4995295;28;20433;-73
2022/09/25 03:53:54;;;;;;;11.55;4.35;;;6.50;99.90;;;;;;4995563;28;20046;-73
2022/09/25 03:56:22;;;;;;;9.25;4.53;;;6.50;99.90;;;;;;4995584;28;20093;-72
2022/09/25 03:58:49;;;;;;;6.95;3.65;;;6.80;99.90;;;;;;4978160;28;20054;-72
2022/09/25 04:01:18;;;;;;;7.28;4.00;;;6.50;99.90;;;;;;4995148;28;20050;-72
2022/09/25 04:03:45;;;;;;;7.15;3.55;;;6.50;99.90;;;;;;4995522;28;20053;-73
2022/09/25 04:06:12;;;;;;;8.45;3.97;;;6.50;99.90;;;;;;4995342;28;20050;-73
2022/09/25 04:08:38;;;;;;;7.72;4.43;;;6.60;99.90;;;;;;4995383;28;20395;-73
2022/09/25 04:11:04;;;;;;;8.48;3.50;;;6.70;99.90;;;;;;4994882;28;20047;-72
2022/09/25 04:13:39;;;;;;;7.97;3.85;;;6.70;99.90;;;;;;4995122;28;20050;-73
2022/09/25 04:16:06;;;;;;;6.88;3.63;;;6.70;99.90;;;;;;4995375;28;20395;-74
2022/09/25 04:18:32;;;;;;;10.45;4.40;;;6.70;99.90;;;;;;4995590;28;20054;-72
2022/09/25 04:21:03;;;;;;;8.43;4.05;;;6.70;99.90;;;;;;4998552;28;20136;-72
2022/09/25 04:23:29;;;;;;;8.18;4.25;;;7.00;99.90;;;;;;4999505;28;20072;-73
2022/09/25 04:25:56;;;;;;;9.48;4.38;;;6.70;99.90;;;;;;4982527;28;20144;-72
2022/09/25 04:28:22;;;;;;;11.18;4.05;;;6.70;99.90;;;;;;4999313;28;20133;-73
2022/09/25 04:30:48;;;;;;;9.15;3.50;;;6.70;99.90;;;;;;4998987;28;20054;-72
2022/09/25 04:36:00;;;;;;;7.47;3.58;;;7.10;99.90;;;;;;4999263;28;20046;-71
2022/09/25 04:38:26;;;;;;;7.95;3.38;;;6.60;99.90;;;;;;4999361;28;20354;-73
2022/09/25 04:40:51;;;;;;;8.52;3.40;;;6.60;99.90;;;;;;4999246;28;20050;-73
2022/09/25 04:43:17;;;;;;;5.70;2.85;;;6.60;99.90;;;;;;4982124;28;20129;-72
2022/09/25 04:45:42;;;;;;;8.75;3.65;;;6.60;99.90;;;;;;4998131;28;20058;-74
2022/09/25 04:48:08;;;;;;;7.43;3.35;;;6.50;99.90;;;;;;4999366;28;20043;-71
2022/09/25 04:50:34;;;;;;;6.60;3.83;;;6.70;99.90;;;;;;4982129;28;20129;-72
2022/09/25 04:53:00;;;;;;;8.57;3.35;;;6.50;99.90;;;;;;4999073;28;20121;-74
2022/09/25 04:55:26;;;;;;;11.48;3.40;;;6.50;99.90;;;;;;4998771;28;20053;-71
2022/09/25 04:57:59;;;;;;;11.05;3.53;;;6.50;99.90;;;;;;4981536;28;20046;-73
2022/09/25 05:00:29;;;;;;;12.95;3.85;;;6.50;99.90;;;;;;4998535;28;20038;-72
2022/09/25 05:02:56;;;;;;;6.40;3.45;;;6.40;99.90;;;;;;4999111;28;20054;-71
2022/09/25 05:05:26;;;;;;;9.57;3.72;;;6.50;99.90;;;;;;4998670;28;20059;-74
2022/09/25 05:07:56;;;;;;;9.43;3.83;;;6.40;99.90;;;;;;4998695;28;20073;-73
2022/09/25 05:10:28;;;;;;;8.82;3.65;;;6.50;99.90;;;;;;4998983;28;20085;-72
2022/09/25 05:13:01;;;;;;;12.70;4.07;;;6.40;99.90;;;;;;4981242;28;20456;-73
2022/09/25 05:15:30;;;;;;;14.57;4.88;;;6.40;99.90;;;;;;4998057;28;20117;-72
2022/09/25 05:18:16;;;;;;;11.45;4.93;;;6.30;99.90;;;;;;4998514;28;20057;-74
2022/09/25 05:20:41;;;;;;;10.02;5.05;;;6.30;99.90;;;;;;5000369;28;20073;-73
2022/09/25 05:23:07;;;;;;;11.68;5.18;;;6.30;99.90;;;;;;5000774;28;20053;-75
2022/09/25 05:25:33;;;;;;;10.57;4.40;;;6.30;99.90;;;;;;4998118;28;20073;-72
2022/09/25 05:28:00;;;;;;;7.25;3.97;;;6.20;99.90;;;;;;4998143;28;20359;-72
2022/09/25 05:30:28;;;;;;;9.20;3.83;;;6.20;99.90;;;;;;4997946;28;20046;-72
2022/09/25 05:32:57;;;;;;;6.50;3.90;;;6.20;99.90;;;;;;4998072;28;20545;-74
2022/09/25 05:35:23;;;;;;;10.07;5.07;;;6.20;99.90;;;;;;4997968;28;20047;-74
2022/09/25 05:37:49;;;;;;;8.73;4.30;;;6.20;99.90;;;;;;4997680;28;20034;-73
2022/09/25 05:40:17;;;;;;;10.80;6.20;;;6.20;99.90;;;;;;4998376;28;20057;-74
2022/09/25 05:42:43;;;;;;;14.27;5.50;;;6.20;99.90;;;;;;4997459;28;20046;-72
2022/09/25 05:45:13;;;;;;;12.07;6.43;;;6.30;99.90;;;;;;4997513;28;20530;-71
2022/09/25 05:47:40;;;;;;;8.50;6.63;;;6.20;99.90;;;;;;4997564;28;20039;-72
2022/09/25 05:50:08;;;;;;;10.10;6.20;;;6.20;99.90;;;;;;4997747;28;20062;-73
2022/09/25 05:52:34;;;;;;;10.80;6.38;;;6.30;99.90;;;;;;4997620;28;20108;-73
2022/09/25 05:55:02;;;;;;;9.98;5.72;;;6.30;99.90;;;;;;4980860;28;20065;-72
2022/09/25 05:57:30;;;;;;;7.45;5.75;;;6.30;99.90;;;;;;4996820;28;20042;-72
2022/09/25 05:59:55;;;;;;;14.02;6.15;;;6.40;99.90;;;;;;4997330;28;20379;-74
2022/09/25 06:02:21;;;;;;;9.45;5.47;;;6.40;99.90;;;;;;4980699;28;20050;-73
2022/09/25 06:04:47;;;;;;;9.23;5.22;;;6.40;99.90;;;;;;4997064;28;20473;-74
2022/09/25 06:07:12;;;;;;;10.57;5.75;;;6.40;99.90;;;;;;4963959;28;20096;-73
2022/09/25 06:09:38;;;;;;;8.55;4.60;;;6.40;99.90;;;;;;4997436;28;20355;-73
2022/09/25 06:12:03;;;;;;;14.75;5.75;;;6.50;99.90;;;;;;4996742;28;20065;-73
2022/09/25 06:14:29;;;;;;;9.88;5.10;;;6.50;99.90;;;;;;4980115;28;20120;-74
2022/09/25 06:16:55;;;;;;;8.88;5.00;;;6.50;99.90;;;;;;4979956;28;20061;-73
2022/09/25 06:19:21;;;;;;;8.25;4.47;;;6.60;99.90;;;;;;4996540;28;20537;-74
2022/09/25 06:21:46;;;;;;;6.50;4.45;;;6.70;99.90;;;;;;4998061;28;20058;-73
2022/09/25 06:24:12;;;;;;;10.23;4.13;;;6.70;99.90;;;;;;4997035;28;20448;-73
2022/09/25 06:26:38;;;;;;;12.63;5.28;;;6.70;99.90;;;;;;4996406;28;20050;-73
2022/09/25 06:29:06;;;;;;;7.75;4.05;;;6.80;99.90;;;;;;4996571;28;20410;-73
2022/09/25 06:31:33;;;;;;;8.07;4.05;;;6.80;99.90;;;;;;4980072;28;20050;-72
2022/09/25 06:33:58;;;;;;;8.82;4.55;;;6.90;99.90;;;;;;4996840;28;20054;-72
2022/09/25 06:36:24;;;;;;;7.75;4.30;;;7.00;99.90;;;;;;4963560;28;20050;-74
2022/09/25 06:38:54;;;;;;;11.60;5.07;;;7.10;99.90;;;;;;4996861;28;20038;-74
2022/09/25 06:41:20;;;;;;;8.13;4.13;;;7.20;99.90;;;;;;4996840;28;20074;-74
2022/09/25 06:43:48;;;;;;;10.85;4.80;;;7.30;99.90;;;;;;4995981;28;20085;-74
2022/09/25 06:46:14;;;;;;;6.78;3.83;;;7.40;99.90;;;;;;4997055;28;20039;-74
2022/09/25 06:48:40;;;;;;;8.02;4.30;;;7.50;99.90;;;;;;4997254;28;20451;-74
2022/09/25 06:51:07;;;;;;;7.15;4.97;;;7.60;99.90;;;;;;4996877;28;20043;-75
2022/09/25 06:53:33;;;;;;;9.48;4.00;;;7.80;99.90;;;;;;4996306;28;20459;-75
2022/09/25 06:55:59;;;;;;;9.93;4.30;;;8.30;99.90;;;;;;4979472;28;20050;-73
2022/09/25 06:58:25;;;;;;;9.07;3.75;;;8.00;99.90;;;;;;4996223;28;20125;-77
2022/09/25 07:00:53;;;;;;;12.13;4.35;;;8.10;99.90;;;;;;4996535;28;20053;-73
2022/09/25 07:06:06;;;;;;;12.40;4.35;;;8.40;99.90;;;;;;4996209;28;20050;-73
2022/09/25 07:08:31;;;;;;;10.35;3.80;;;8.50;99.90;;;;;;4996615;28;20112;-72
2022/09/25 07:10:58;;;;;;;10.23;3.63;;;8.70;99.90;;;;;;4996716;28;20078;-73
2022/09/25 07:13:26;;;;;;;9.55;2.83;;;8.80;99.90;;;;;;4995819;28;20108;-72
2022/09/25 07:16:00;;;;;;;8.63;3.05;;;8.90;99.90;;;;;;4996818;28;20467;-75
2022/09/25 07:18:27;;;;;;;8.57;3.05;;;9.00;99.90;;;;;;4978937;28;20124;-75
2022/09/25 07:20:57;;;;;;;6.20;3.10;;;9.10;99.90;;;;;;4995553;28;20066;-75
2022/09/25 07:23:23;;;;;;;12.48;3.50;;;9.20;99.90;;;;;;4996081;28;20050;-74
2022/09/25 07:25:49;;;;;;;7.10;2.80;;;9.30;99.90;;;;;;4996077;28;20052;-73
2022/09/25 07:28:17;;;;;;;8.38;2.70;;;9.40;99.90;;;;;;4995782;28;20046;-72
2022/09/25 07:30:43;;;;;;;9.38;3.42;;;9.40;99.90;;;;;;4996292;28;20394;-73
2022/09/25 07:33:09;;;;;;;11.27;3.30;;;9.50;99.90;;;;;;4979126;28;20054;-73
2022/09/25 07:35:35;;;;;;;8.60;2.80;;;9.50;99.90;;;;;;4977062;28;20080;-74
2022/09/25 07:38:01;;;;;;;9.95;3.30;;;9.60;99.90;;;;;;4976198;28;20054;-74
2022/09/25 07:40:27;;;;;;;9.65;2.75;;;9.70;99.90;;;;;;4959114;28;20051;-73
2022/09/25 07:43:00;;;;;;;8.77;3.33;;;9.80;99.90;;;;;;4976504;28;20462;-73
2022/09/25 07:45:26;;;;;;;8.48;3.45;;;9.80;99.90;;;;;;4976247;28;20047;-73
2022/09/25 07:48:00;;;;;;;9.75;3.00;;;9.90;99.90;;;;;;4976257;28;20085;-73
2022/09/25 07:50:30;;;;;;;10.55;4.20;;;10.00;99.90;;;;;;4976275;28;20039;-74
2022/09/25 07:52:56;;;;;;;6.72;2.50;;;10.10;99.90;;;;;;4959360;28;20062;-73
2022/09/25 07:55:21;;;;;;;7.95;3.50;;;10.20;99.90;;;;;;4958270;28;20051;-72
2022/09/25 07:57:49;;;;;;;6.45;2.65;;;10.30;99.90;;;;;;4976164;28;20063;-73
2022/09/25 08:00:16;;;;;;;9.57;2.92;;;10.40;99.90;;;;;;4975968;28;20053;-73
2022/09/25 08:02:41;;;;;;;7.50;3.03;;;10.60;99.90;;;;;;4976073;28;20043;-73
2022/09/25 08:05:08;;;;;;;10.65;2.63;;;10.80;99.90;;;;;;4959340;28;20051;-74
2022/09/25 08:07:33;;;;;;;7.75;2.78;;;11.00;99.90;;;;;;4992718;28;20058;-71
2022/09/25 08:09:59;;;;;;;10.07;3.47;;;11.20;99.90;;;;;;4995320;28;20057;-71
2022/09/25 08:12:25;;;;;;;10.50;2.90;;;11.40;99.90;;;;;;4995676;28;20058;-71
2022/09/25 08:14:51;;;;;;;9.95;3.28;;;11.50;99.90;;;;;;4977904;28;20505;-71
2022/09/25 08:17:18;;;;;;;9.85;2.75;;;11.60;99.90;;;;;;4995550;28;20113;-71
2022/09/25 08:19:44;;;;;;;7.20;2.50;;;11.80;99.90;;;;;;4995583;28;20046;-73
2022/09/25 08:22:10;;;;;;;6.78;2.10;;;11.90;99.90;;;;;;4995045;28;20463;-71
2022/09/25 08:24:36;;;;;;;11.80;2.75;;;12.00;99.90;;;;;;4995332;28;20096;-73
2022/09/25 08:27:03;;;;;;;7.13;2.15;;;12.10;99.90;;;;;;4995169;28;20054;-72
2022/09/25 08:29:29;;;;;;;8.05;2.30;;;12.20;99.90;;;;;;4995173;28;20089;-73
2022/09/25 08:31:55;;;;;;;6.03;2.22;;;12.20;99.90;;;;;;4994980;28;20474;-71
2022/09/25 08:34:21;;;;;;;7.80;2.60;;;12.30;99.90;;;;;;4995533;28;20149;-72
2022/09/25 08:36:49;;;;;;;4.95;2.00;;;12.30;99.90;;;;;;4980085;28;20503;-75
2022/09/25 08:39:15;;;;;;;7.40;2.22;;;12.40;99.90;;;;;;4975776;28;20047;-74
2022/09/25 08:41:54;;;;;;;8.60;2.10;;;12.40;99.90;;;;;;4975431;28;20517;-72
2022/09/25 08:44:30;;;;;;;6.18;2.25;;;12.40;99.90;;;;;;4976209;28;20336;-72
2022/09/25 08:49:59;;;;;;;8.35;2.15;;;12.50;99.90;;;;;;4975444;28;20055;-71
2022/09/25 08:52:25;;;;;;;6.03;2.20;;;12.60;99.90;;;;;;4975790;28;20202;-72
2022/09/25 08:54:53;;;;;;;9.15;2.17;;;12.90;99.90;;;;;;4976641;28;20078;-72
2022/09/25 08:57:40;;;;;;;5.82;1.92;;;12.80;99.90;;;;;;4970679;28;20030;-72
2022/09/25 09:00:19;;;;;;;5.47;1.90;;;12.90;99.90;;;;;;4975252;28;20067;-73
2022/09/25 09:02:50;;;;;;;5.75;1.65;;;13.10;99.90;;;;;;4972981;28;20113;-73
2022/09/25 09:05:19;;;;;;;5.75;1.95;;;13.30;99.90;;;;;;4994880;28;20038;-71
2022/09/25 09:07:51;;;;;;;6.90;1.90;;;13.60;99.90;;;;;;4996741;28;20491;-72
2022/09/25 09:10:40;;;;;;;6.38;2.05;;;14.00;99.90;;;;;;4998524;28;20042;-73
2022/09/25 09:13:32;;;;;;;9.70;1.77;;;14.20;99.90;;;;;;4998138;28;20526;-74
2022/09/25 09:16:00;;;;;;;10.07;1.50;;;14.30;99.90;;;;;;4998096;28;20100;-72
2022/09/25 09:18:28;;;;;;;4.43;1.40;;;14.20;99.90;;;;;;4973067;28;20042;-74
2022/09/25 09:21:07;;;;;;;6.50;1.52;;;14.00;99.90;;;;;;4983588;28;20416;-71
2022/09/25 09:23:49;;;;;;;5.85;1.55;;;13.70;99.90;;;;;;4998129;28;20038;-75
2022/09/25 09:26:23;;;;;;;4.68;1.67;;;13.40;99.90;;;;;;4990211;28;20049;-73
2022/09/25 09:29:03;;;;;;;6.03;1.70;;;13.10;99.90;;;;;;4988377;28;20042;-73
2022/09/25 09:31:46;;;;;;;3.63;1.40;;;13.00;99.90;;;;;;4997467;28;20050;-72
2022/09/25 09:35:06;;;;;;;5.35;1.77;;;12.80;99.90;;;;;;4992704;28;20078;-72
2022/09/25 09:37:41;;;;;;;3.67;1.50;;;12.70;99.90;;;;;;4921857;29;20048;-73
2022/09/25 09:40:35;;;;;;;4.97;1.75;;;12.70;99.90;;;;;;4972517;28;20097;-74
2022/09/25 09:43:28;;;;;;;4.45;1.70;;;12.60;99.90;;;;;;4998271;28;20056;-73
2022/09/25 09:46:21;;;;;;;3.05;1.50;;;12.70;99.90;;;;;;4997974;28;20094;-72
2022/09/25 09:49:00;;;;;;;10.05;1.63;;;12.90;99.90;;;;;;4980488;28;20050;-72
2022/09/25 09:51:49;;;;;;;5.00;1.45;;;13.00;99.90;;;;;;4980306;28;20069;-71
2022/09/25 09:54:36;;;;;;;9.07;1.45;;;13.10;99.90;;;;;;4997577;28;20367;-73
2022/09/25 09:57:14;;;;;;;6.68;1.60;;;13.20;99.90;;;;;;4998053;28;20118;-70
2022/09/25 10:00:02;;;;;;;4.10;1.55;;;13.20;99.90;;;;;;4980940;28;20046;-72
2022/09/25 10:02:45;;;;;;;7.40;1.50;;;13.20;99.90;;;;;;4980521;28;20509;-74
2022/09/25 10:05:24;;;;;;;4.57;1.08;;;13.20;99.90;;;;;;4997439;28;20046;-72
2022/09/25 10:07:51;;;;;;;3.78;1.33;;;13.20;99.90;;;;;;4997223;28;20053;-74
2022/09/25 10:10:18;;;;;;;4.60;1.45;;;13.20;99.90;;;;;;4997598;28;20068;-74
2022/09/25 10:12:51;;;;;;;4.75;1.70;;;13.00;99.90;;;;;;4989787;28;20116;-75
2022/09/25 10:15:41;;;;;;;4.82;1.40;;;13.00;99.90;;;;;;4997524;28;20050;-74
2022/09/25 10:18:08;;;;;;;7.18;1.83;;;13.00;99.90;;;;;;4996577;28;20133;-73
2022/09/25 10:20:56;;;;;;;6.82;1.90;;;13.20;99.90;;;;;;4997121;28;20128;-72
2022/09/25 10:23:47;;;;;;;3.35;1.40;;;13.20;99.90;;;;;;4977766;28;20043;-74
2022/09/25 10:26:24;;;;;;;4.13;1.40;;;13.30;99.90;;;;;;4984654;28;20332;-73
2022/09/25 10:28:50;;;;;;;3.78;1.60;;;13.40;99.90;;;;;;4996999;28;20046;-73
2022/09/25 10:31:18;;;;;;;3.97;1.50;;;13.70;99.90;;;;;;4997025;28;20053;-71
2022/09/25 10:34:02;;;;;;;4.75;1.50;;;13.80;99.90;;;;;;4997052;28;20039;-70
2022/09/25 10:36:33;;;;;;;5.90;1.60;;;14.00;99.90;;;;;;4980281;28;20042;-71
2022/09/25 10:38:58;;;;;;;6.60;1.83;;;14.20;99.90;;;;;;4996854;28;20038;-72
2022/09/25 10:41:25;;;;;;;4.07;1.60;;;14.40;99.90;;;;;;4976236;28;20479;-71
2022/09/25 10:43:53;;;;;;;3.47;1.33;;;14.60;99.90;;;;;;4996304;28;20054;-73
2022/09/25 10:52:09;;;;;;;2.88;1.00;;;14.90;99.90;;;;;;4996479;28;20058;-72
2022/09/25 10:54:35;;;;;;;4.93;1.55;;;15.00;99.90;;;;;;4996721;28;20105;-70
2022/09/25 10:57:33;;;;;;;6.93;1.40;;;15.10;99.90;;;;;;4996626;28;20038;-72
2022/09/25 11:00:01;;;;;;;4.43;1.50;;;15.20;99.90;;;;;;4996099;28;20474;-72
2022/09/25 11:02:38;;;;;;;4.70;1.35;;;15.30;99.90;;;;;;4979295;28;20061;-71
2022/09/25 11:05:25;;;;;;;4.50;1.15;;;15.40;99.90;;;;;;4996512;28;20042;-72
2022/09/25 11:07:55;;;;;;;3.15;1.00;;;15.60;99.90;;;;;;4994516;28;20062;-71
2022/09/25 11:10:25;;;;;;;6.97;1.30;;;15.60;99.90;;;;;;4996470;28;20054;-71
2022/09/25 11:12:52;;;;;;;5.18;1.70;;;15.70;99.90;;;;;;4996550;28;20088;-72
2022/09/25 11:15:22;;;;;;;5.78;1.42;;;15.70;99.90;;;;;;4996395;28;20046;-70
2022/09/25 11:17:51;;;;;;;5.85;1.27;;;15.80;99.90;;;;;;5000882;28;20053;-71
2022/09/25 11:20:28;;;;;;;7.50;1.35;;;15.70;99.90;;;;;;4996149;28;20058;-71
2022/09/25 11:23:16;;;;;;;3.53;1.35;;;15.70;99.90;;;;;;4996263;28;20046;-73
2022/09/25 11:25:52;;;;;;;6.32;1.30;;;15.60;99.90;;;;;;4996377;28;20046;-72
2022/09/25 11:28:51;;;;;;;2.83;1.30;;;15.60;99.90;;;;;;4961633;28;20058;-71
2022/09/25 11:31:28;;;;;;;6.38;1.45;;;15.80;99.90;;;;;;4912134;28;20050;-73
2022/09/25 11:34:35;;;;;;;8.70;1.33;;;15.80;99.90;;;;;;4995858;28;20038;-70
2022/09/25 11:37:06;;;;;;;5.50;1.20;;;16.00;99.90;;;;;;4968671;28;20072;-72
2022/09/25 11:42:57;;;;;;;4.85;1.30;;;16.30;99.90;;;;;;4995864;28;20366;-72
2022/09/25 11:45:34;;;;;;;2.55;1.00;;;16.40;99.90;;;;;;4995695;28;20088;-71
2022/09/25 11:48:05;;;;;;;11.30;1.70;;;16.60;99.90;;;;;;4995127;28;20117;-71
2022/09/25 11:50:51;;;;;;;4.95;1.20;;;16.60;99.90;;;;;;4995076;28;20080;-72
2022/09/25 11:53:36;;;;;;;4.95;1.42;;;16.70;99.90;;;;;;4995754;28;20046;-73
2022/09/25 11:56:29;;;;;;;3.85;1.00;;;16.60;99.90;;;;;;4978859;28;20402;-72
2022/09/25 11:59:06;;;;;;;3.72;1.23;;;16.30;99.90;;;;;;4995378;28;20101;-71
2022/09/25 12:01:45;;;;;;;2.38;1.10;;;15.90;99.90;;;;;;4995062;28;20046;-73
2022/09/25 12:04:26;;;;;;;4.10;1.17;;;15.60;99.90;;;;;;4987847;28;20050;-74
2022/09/25 12:07:43;;;;;;;4.50;1.20;;;15.30;99.90;;;;;;4994946;28;20049;-70
2022/09/25 12:10:39;;;;;;;4.40;1.23;;;15.30;99.90;;;;;;4990134;28;20117;-72
2022/09/25 12:13:25;;;;;;;3.75;1.23;;;15.30;99.90;;;;;;4994618;28;20057;-72
2022/09/25 12:16:25;;;;;;;6.57;1.15;;;15.40;99.90;;;;;;4977197;28;20058;-72
2022/09/25 12:19:11;;;;;;;3.53;0.95;;;15.60;99.90;;;;;;4991989;28;20130;-73
2022/09/25 12:22:03;;;;;;;1.90;0.80;;;15.90;99.90;;;;;;4985970;28;20054;-72
2022/09/25 12:24:41;;;;;;;3.72;1.00;;;16.10;99.90;;;;;;4994305;28;20386;-71
2022/09/25 12:27:46;;;;;;;2.25;1.00;;;16.30;99.90;;;;;;4992703;28;20112;-72
2022/09/25 12:30:18;;;;;;;1.73;0.70;;;16.40;99.90;;;;;;4942685;28;20050;-72
2022/09/25 12:32:54;;;;;;;4.80;1.13;;;16.40;99.90;;;;;;4995390;28;20138;-72
2022/09/25 12:35:55;;;;;;;4.57;1.20;;;16.60;99.90;;;;;;4978528;28;20081;-70
2022/09/25 12:38:31;;;;;;;3.03;1.00;;;16.80;99.90;;;;;;4995423;28;20054;-71
2022/09/25 12:41:16;;;;;;;2.95;0.90;;;17.10;99.90;;;;;;4978138;28;20046;-73
2022/09/25 12:43:48;;;;;;;4.40;1.15;;;17.10;99.90;;;;;;4999234;28;20046;-72
2022/09/25 12:46:26;;;;;;;2.15;0.85;;;17.00;99.90;;;;;;4994818;28;20050;-70
2022/09/25 12:49:05;;;;;;;2.25;0.80;;;17.00;99.90;;;;;;4991579;28;20466;-71
2022/09/25 12:51:44;;;;;;;3.22;1.20;;;16.80;99.90;;;;;;4981042;28;20069;-71
2022/09/25 12:54:23;;;;;;;2.45;0.80;;;16.60;99.90;;;;;;4981462;28;20050;-71
2022/09/25 12:57:01;;;;;;;3.92;1.20;;;16.50;99.90;;;;;;4998545;28;20050;-72
2022/09/25 12:59:36;;;;;;;5.80;1.10;;;16.30;99.90;;;;;;4998798;28;20093;-70
2022/09/25 13:02:04;;;;;;;4.18;1.15;;;16.20;99.90;;;;;;4998690;28;20046;-71
2022/09/25 13:05:07;;;;;;;3.42;1.20;;;16.10;99.90;;;;;;4999114;28;20133;-72
2022/09/25 13:08:09;;;;;;;3.90;1.20;;;16.10;99.90;;;;;;4999058;28;20190;-72
2022/09/25 13:10:55;;;;;;;4.00;1.02;;;16.10;99.90;;;;;;4997706;28;20113;-72
2022/09/25 13:13:28;;;;;;;5.72;2.00;;;16.00;99.90;;;;;;4998339;28;20046;-73
2022/09/25 13:15:57;;;;;;;4.47;1.10;;;16.00;99.90;;;;;;4998646;28;20121;-74
2022/09/25 13:18:25;;;;;;;4.10;1.08;;;15.90;99.90;;;;;;4998568;28;20038;-72
2022/09/25 13:20:55;;;;;;;3.97;1.10;;;15.80;99.90;;;;;;4996816;28;20081;-70
2022/09/25 13:23:33;;;;;;;4.93;1.17;;;15.80;99.90;;;;;;4993266;28;20050;-72
2022/09/25 13:26:09;;;;;;;4.47;1.52;;;15.70;99.90;;;;;;4998044;28;20054;-71
2022/09/25 13:28:51;;;;;;;2.95;1.20;;;15.80;99.90;;;;;;4998351;28;20050;-70
2022/09/25 13:31:26;;;;;;;3.13;0.93;;;15.90;99.90;;;;;;4997960;28;20050;-71
2022/09/25 13:34:00;;;;;;;3.38;1.23;;;16.10;99.90;;;;;;4991673;28;20054;-70
2022/09/25 13:37:00;;;;;;;3.95;0.90;;;16.20;99.90;;;;;;4997811;28;20069;-70
2022/09/25 13:42:45;;;;;;;6.57;1.30;;;16.30;99.90;;;;;;4991329;28;20082;-72
2022/09/25 13:45:33;;;;;;;4.47;1.20;;;16.50;99.90;;;;;;4963166;28;20057;-70
2022/09/25 13:48:01;;;;;;;6.10;1.23;;;16.50;99.90;;;;;;4979827;28;20046;-70